createdAt,value
2022-10-19T00:01:41.031Z,6.98
2022-10-19T00:04:10.599Z,6.96
2022-10-19T00:06:43.348Z,6.92
2022-10-19T00:09:16.415Z,6.90
2022-10-19T00:11:52.381Z,6.90
2022-10-19T00:14:25.354Z,6.85
2022-10-19T00:16:53.539Z,6.83
2022-10-19T00:19:26.314Z,6.80
2022-10-19T00:21:58.099Z,6.77
2022-10-19T00:24:28.343Z,6.78
2022-10-19T00:26:56.968Z,6.77
2022-10-19T00:29:23.811Z,6.75
2022-10-19T00:31:51.467Z,6.75
2022-10-19T00:34:18.510Z,6.76
2022-10-19T00:36:46.029Z,6.76
2022-10-19T00:39:15.139Z,6.75
2022-10-19T00:41:43.110Z,6.72
2022-10-19T00:44:12.701Z,6.68
2022-10-19T00:46:42.311Z,6.61
2022-10-19T00:49:24.817Z,6.61
2022-10-19T00:51:54.919Z,6.56
2022-10-19T00:54:22.599Z,6.53
2022-10-19T00:56:52.180Z,6.51
2022-10-19T00:59:43.940Z,6.47
2022-10-19T01:02:13.846Z,6.46
2022-10-19T01:04:59.641Z,6.44
2022-10-19T01:07:30.367Z,6.44
2022-10-19T01:10:00.915Z,6.42
2022-10-19T01:12:39.945Z,6.40
2022-10-19T01:15:22.309Z,6.33
2022-10-19T01:18:14.126Z,6.35
2022-10-19T01:20:53.100Z,6.32
2022-10-19T01:23:57.240Z,6.28
2022-10-19T01:29:52.653Z,6.23
2022-10-19T01:32:32.905Z,6.20
2022-10-19T01:35:07.298Z,6.17
2022-10-19T01:37:42.113Z,6.13
2022-10-19T01:41:01.776Z,6.10
2022-10-19T01:43:31.363Z,6.05
2022-10-19T01:46:11.632Z,5.99
2022-10-19T01:48:50.973Z,5.97
2022-10-19T01:51:23.150Z,5.98
2022-10-19T01:53:57.308Z,5.97
2022-10-19T01:56:27.806Z,5.98
2022-10-19T01:58:58.164Z,5.99
2022-10-19T02:01:28.707Z,5.99
2022-10-19T02:03:57.406Z,5.98
2022-10-19T02:06:24.200Z,6.02
2022-10-19T02:08:53.567Z,5.99
2022-10-19T02:11:22.218Z,5.94
2022-10-19T02:13:54.738Z,5.92
2022-10-19T02:16:27.538Z,5.88
2022-10-19T02:18:56.529Z,5.85
2022-10-19T02:21:29.813Z,5.81
2022-10-19T02:24:02.243Z,5.77
2022-10-19T02:26:29.526Z,5.74
2022-10-19T02:29:00.740Z,5.70
2022-10-19T02:31:29.952Z,5.65
2022-10-19T02:34:05.120Z,5.62
2022-10-19T02:36:33.649Z,5.60
2022-10-19T02:39:02.371Z,5.57
2022-10-19T02:41:55.867Z,5.55
2022-10-19T02:44:54.077Z,5.50
2022-10-19T02:48:08.035Z,5.49
2022-10-19T02:50:40.538Z,5.46
2022-10-19T02:53:10.064Z,5.45
2022-10-19T02:58:08.040Z,5.42
2022-10-19T03:00:39.990Z,5.42
2022-10-19T03:03:12.166Z,5.39
2022-10-19T03:05:40.894Z,5.39
2022-10-19T03:08:13.309Z,5.36
2022-10-19T03:10:40.177Z,5.35
2022-10-19T03:13:08.790Z,5.35
2022-10-19T03:15:36.900Z,5.32
2022-10-19T03:18:05.520Z,5.32
2022-10-19T03:20:35.853Z,5.31
2022-10-19T03:23:02.709Z,5.23
2022-10-19T03:25:29.570Z,5.27
2022-10-19T03:28:01.680Z,5.25
2022-10-19T03:30:32.786Z,5.23
2022-10-19T03:33:11.129Z,5.22
2022-10-19T03:35:39.773Z,5.16
2022-10-19T03:38:06.608Z,5.15
2022-10-19T03:40:39.618Z,5.11
2022-10-19T03:43:09.765Z,5.11
2022-10-19T03:45:36.600Z,5.07
2022-10-19T03:48:10.181Z,5.05
2022-10-19T03:50:38.946Z,5.03
2022-10-19T03:53:05.822Z,5.01
2022-10-19T03:55:35.181Z,4.96
2022-10-19T03:58:03.240Z,4.89
2022-10-19T04:00:31.715Z,4.89
2022-10-19T04:02:58.580Z,4.94
2022-10-19T04:05:30.270Z,4.90
2022-10-19T04:07:58.982Z,4.89
2022-10-19T04:10:25.817Z,4.85
2022-10-19T04:12:53.878Z,4.84
2022-10-19T04:15:26.023Z,4.81
2022-10-19T04:17:55.973Z,4.79
2022-10-19T04:20:28.325Z,4.76
2022-10-19T04:22:58.236Z,4.74
2022-10-19T04:25:28.955Z,4.71
2022-10-19T04:28:06.310Z,4.68
2022-10-19T04:30:33.589Z,4.67
2022-10-19T04:33:00.447Z,4.64
2022-10-19T04:35:27.438Z,4.64
2022-10-19T04:37:54.292Z,4.60
2022-10-19T04:40:23.215Z,4.60
2022-10-19T04:42:50.087Z,4.59
2022-10-19T04:45:17.103Z,4.57
2022-10-19T04:47:43.866Z,4.55
2022-10-19T04:50:10.713Z,4.53
2022-10-19T04:52:37.647Z,4.52
2022-10-19T04:55:05.023Z,4.51
2022-10-19T04:57:32.224Z,4.50
2022-10-19T04:59:59.281Z,4.44
2022-10-19T05:02:26.055Z,4.46
2022-10-19T05:04:53.462Z,4.46
2022-10-19T05:07:20.322Z,4.43
2022-10-19T05:09:47.243Z,4.41
2022-10-19T05:12:14.071Z,4.38
2022-10-19T05:14:42.889Z,4.34
2022-10-19T05:17:10.023Z,4.34
2022-10-19T05:19:36.891Z,4.33
2022-10-19T05:22:03.835Z,4.32
2022-10-19T05:24:32.590Z,4.31
2022-10-19T05:26:59.469Z,4.28
2022-10-19T05:29:26.431Z,4.22
2022-10-19T05:31:53.364Z,4.22
2022-10-19T05:34:20.263Z,4.21
2022-10-19T05:36:47.197Z,4.22
2022-10-19T05:39:18.050Z,4.18
2022-10-19T05:41:46.684Z,4.15
2022-10-19T05:44:18.752Z,4.18
2022-10-19T05:46:46.479Z,4.16
2022-10-19T05:49:14.616Z,4.13
2022-10-19T05:51:42.003Z,4.09
2022-10-19T05:54:09.815Z,4.11
2022-10-19T05:56:37.263Z,4.09
2022-10-19T05:59:06.114Z,4.05
2022-10-19T06:01:33.496Z,4.07
2022-10-19T06:04:02.830Z,4.04
2022-10-19T06:06:30.964Z,4.06
2022-10-19T06:08:59.057Z,4.03
2022-10-19T06:11:35.191Z,3.99
2022-10-19T06:14:04.604Z,4.02
2022-10-19T06:16:32.354Z,4.02
2022-10-19T06:19:00.014Z,4.03
2022-10-19T06:21:30.798Z,4.05
2022-10-19T06:24:00.757Z,4.04
2022-10-19T06:26:28.587Z,4.05
2022-10-19T06:29:00.678Z,4.03
2022-10-19T06:31:29.555Z,4.05
2022-10-19T06:33:56.634Z,4.01
2022-10-19T06:36:28.785Z,4.07
2022-10-19T06:38:56.703Z,4.09
2022-10-19T06:41:23.700Z,4.09
2022-10-19T06:43:54.971Z,4.05
2022-10-19T06:46:24.639Z,4.06
2022-10-19T06:48:55.439Z,4.06
2022-10-19T06:51:23.254Z,4.07
2022-10-19T06:53:54.211Z,4.04
2022-10-19T06:56:24.793Z,4.09
2022-10-19T06:58:51.919Z,4.11
2022-10-19T07:01:19.224Z,4.12
2022-10-19T07:03:46.243Z,4.10
2022-10-19T07:06:14.102Z,4.13
2022-10-19T07:08:42.447Z,4.14
2022-10-19T07:11:16.147Z,4.16
2022-10-19T07:13:43.343Z,4.19
2022-10-19T07:16:16.063Z,4.21
2022-10-19T07:18:47.489Z,4.21
2022-10-19T07:21:16.127Z,4.27
2022-10-19T07:23:44.685Z,4.28
2022-10-19T07:26:23.240Z,4.32
2022-10-19T07:28:50.717Z,4.29
2022-10-19T07:31:20.640Z,4.38
2022-10-19T07:33:52.334Z,4.39
2022-10-19T07:36:19.634Z,4.45
2022-10-19T07:38:46.556Z,4.43
2022-10-19T07:41:16.702Z,4.52
2022-10-19T07:43:45.200Z,4.54
2022-10-19T07:46:17.587Z,4.56
2022-10-19T07:48:45.097Z,4.60
2022-10-19T07:51:14.413Z,4.67
2022-10-19T07:53:41.759Z,4.71
2022-10-19T07:56:14.418Z,4.76
2022-10-19T07:58:41.673Z,4.80
2022-10-19T08:01:12.370Z,4.87
2022-10-19T08:06:26.538Z,4.97
2022-10-19T08:08:54.515Z,5.00
2022-10-19T08:11:34.190Z,5.10
2022-10-19T08:14:04.784Z,5.15
2022-10-19T08:16:40.626Z,5.23
2022-10-19T08:19:12.781Z,5.28
2022-10-19T08:21:41.791Z,5.39
2022-10-19T08:24:10.145Z,5.44
2022-10-19T08:26:38.997Z,5.52
2022-10-19T08:29:12.531Z,5.64
2022-10-19T08:31:40.452Z,5.71
2022-10-19T08:34:07.323Z,5.77
2022-10-19T08:36:35.696Z,5.86
2022-10-19T08:39:05.037Z,5.94
2022-10-19T08:41:41.313Z,6.04
2022-10-19T08:44:20.315Z,6.10
2022-10-19T08:47:35.042Z,6.21
2022-10-19T08:50:03.595Z,6.29
2022-10-19T08:52:34.817Z,6.35
2022-10-19T08:55:09.154Z,6.46
2022-10-19T08:57:55.881Z,6.54
2022-10-19T09:00:43.348Z,6.62
2022-10-19T09:03:55.518Z,6.73
2022-10-19T09:06:45.073Z,6.80
2022-10-19T09:09:16.872Z,6.87
2022-10-19T09:11:49.978Z,6.93
2022-10-19T09:14:26.000Z,7.02
2022-10-19T09:17:02.477Z,7.10
2022-10-19T09:19:31.940Z,7.19
2022-10-19T09:22:07.770Z,7.26
2022-10-19T09:24:41.573Z,7.31
2022-10-19T09:27:20.805Z,7.39
2022-10-19T09:29:57.478Z,7.45
2022-10-19T09:32:33.554Z,7.52
2022-10-19T09:35:04.058Z,7.62
2022-10-19T09:37:32.897Z,7.68
2022-10-19T09:39:59.841Z,7.74
2022-10-19T09:42:33.647Z,7.80
2022-10-19T09:45:11.740Z,7.90
2022-10-19T09:47:40.517Z,7.96
2022-10-19T09:50:16.318Z,8.02
2022-10-19T09:52:48.834Z,8.12
2022-10-19T09:55:23.746Z,8.19
2022-10-19T09:57:59.623Z,8.27
2022-10-19T10:00:37.368Z,8.35
2022-10-19T10:03:06.173Z,8.40
2022-10-19T10:05:39.607Z,8.46
2022-10-19T10:08:15.568Z,8.56
2022-10-19T10:11:07.098Z,8.63
2022-10-19T10:13:40.418Z,8.68
2022-10-19T10:16:10.161Z,8.73
2022-10-19T10:19:00.345Z,8.76
2022-10-19T10:21:45.982Z,8.86
2022-10-19T10:24:12.843Z,8.90
2022-10-19T10:26:42.718Z,8.92
2022-10-19T10:29:27.892Z,8.96
2022-10-19T10:32:24.922Z,9.05
2022-10-19T10:35:07.144Z,9.08
2022-10-19T10:37:41.767Z,9.12
2022-10-19T10:40:23.262Z,9.17
2022-10-19T10:42:53.650Z,9.23
2022-10-19T10:45:26.198Z,9.25
2022-10-19T10:47:53.892Z,9.32
2022-10-19T10:50:27.950Z,9.33
2022-10-19T10:53:03.603Z,9.38
2022-10-19T10:55:31.788Z,9.43
2022-10-19T10:58:31.015Z,9.48
2022-10-19T11:01:06.612Z,9.52
2022-10-19T11:03:37.982Z,9.59
2022-10-19T11:06:05.048Z,9.58
2022-10-19T11:08:49.435Z,9.66
2022-10-19T11:11:48.972Z,9.70
2022-10-19T11:14:43.977Z,9.74
2022-10-19T11:17:28.141Z,9.79
2022-10-19T11:19:55.247Z,9.82
2022-10-19T11:22:45.450Z,9.86
2022-10-19T11:25:32.556Z,9.89
2022-10-19T11:28:15.523Z,9.92
2022-10-19T11:31:21.214Z,9.99
2022-10-19T11:34:00.402Z,9.99
2022-10-19T11:36:56.457Z,10.06
2022-10-19T11:39:54.373Z,10.12
2022-10-19T11:42:24.338Z,10.14
2022-10-19T11:45:23.433Z,10.20
2022-10-19T11:48:12.252Z,10.22
2022-10-19T11:50:54.331Z,10.25
2022-10-19T11:53:33.361Z,10.25
2022-10-19T11:56:08.308Z,10.30
2022-10-19T11:58:44.397Z,10.35
2022-10-19T12:01:40.260Z,10.41
2022-10-19T12:04:25.638Z,10.48
2022-10-19T12:07:10.041Z,10.44
2022-10-19T12:10:03.084Z,10.52
2022-10-19T12:12:36.116Z,10.57
2022-10-19T12:15:11.914Z,10.62
2022-10-19T12:17:43.454Z,10.65
2022-10-19T12:20:29.742Z,10.69
2022-10-19T12:22:59.681Z,10.73
2022-10-19T12:25:27.773Z,10.72
2022-10-19T12:27:55.403Z,10.80
2022-10-19T12:30:24.052Z,10.84
2022-10-19T12:33:22.829Z,10.89
2022-10-19T12:36:09.238Z,10.97
2022-10-19T12:38:47.934Z,11.02
2022-10-19T12:41:37.831Z,11.05
2022-10-19T12:44:35.547Z,11.10
2022-10-19T12:47:17.818Z,11.14
2022-10-19T12:49:57.735Z,11.20
2022-10-19T12:52:38.324Z,11.22
2022-10-19T12:55:24.547Z,11.28
2022-10-19T12:58:21.506Z,11.33
2022-10-19T13:01:00.675Z,11.34
2022-10-19T13:03:34.500Z,11.38
2022-10-19T13:06:13.097Z,11.39
2022-10-19T13:08:46.641Z,11.42
2022-10-19T13:11:15.649Z,11.42
2022-10-19T13:13:54.095Z,11.47
2022-10-19T13:16:30.145Z,11.51
2022-10-19T13:19:00.265Z,11.50
2022-10-19T13:21:54.666Z,11.56
2022-10-19T13:24:24.539Z,11.58
2022-10-19T13:27:03.537Z,11.59
2022-10-19T13:29:39.631Z,11.60
2022-10-19T13:32:31.553Z,11.63
2022-10-19T13:35:30.915Z,11.63
2022-10-19T13:38:12.814Z,11.63
2022-10-19T13:40:48.761Z,11.63
2022-10-19T13:43:44.754Z,11.64
2022-10-19T13:46:30.112Z,11.64
2022-10-19T13:49:15.954Z,11.57
2022-10-19T13:52:00.972Z,11.65
2022-10-19T13:54:50.496Z,11.66
2022-10-19T13:57:43.417Z,11.67
2022-10-19T14:00:35.934Z,11.66
2022-10-19T14:03:11.637Z,11.61
2022-10-19T14:05:47.605Z,11.67
2022-10-19T14:08:26.788Z,11.68
2022-10-19T14:11:03.922Z,11.65
2022-10-19T14:13:31.511Z,11.63
2022-10-19T14:16:01.512Z,11.66
2022-10-19T14:18:36.536Z,11.66
2022-10-19T14:21:09.357Z,11.67
2022-10-19T14:23:41.792Z,11.66
2022-10-19T14:26:16.776Z,11.67
2022-10-19T14:28:43.824Z,11.65
2022-10-19T14:31:20.085Z,11.63
2022-10-19T14:33:50.625Z,11.63
2022-10-19T14:36:23.393Z,11.61
2022-10-19T14:38:54.962Z,11.63
2022-10-19T14:41:27.963Z,11.62
2022-10-19T14:43:56.441Z,11.61
2022-10-19T14:46:31.828Z,11.57
2022-10-19T14:49:05.835Z,11.59
2022-10-19T14:51:50.288Z,11.56
2022-10-19T14:54:32.659Z,11.55
2022-10-19T14:57:07.343Z,11.57
2022-10-19T15:00:00.561Z,11.56
2022-10-19T15:02:37.274Z,11.50
2022-10-19T15:05:06.454Z,11.54
2022-10-19T15:07:39.656Z,11.48
2022-10-19T15:10:16.944Z,11.51
2022-10-19T15:12:45.204Z,11.50
2022-10-19T15:15:24.290Z,11.49
2022-10-19T15:18:05.274Z,11.49
2022-10-19T15:20:49.611Z,11.49
2022-10-19T15:23:42.427Z,11.47
2022-10-19T15:26:24.793Z,11.46
2022-10-19T15:28:54.900Z,11.44
2022-10-19T15:31:26.619Z,11.44
2022-10-19T15:33:59.579Z,11.45
2022-10-19T15:36:28.620Z,11.45
2022-10-19T15:39:06.247Z,11.47
2022-10-19T15:41:45.590Z,11.45
2022-10-19T15:44:33.868Z,11.46
2022-10-19T15:47:27.397Z,11.49
2022-10-19T15:50:00.107Z,11.46
2022-10-19T15:52:33.279Z,11.47
2022-10-19T15:55:01.194Z,11.45
2022-10-19T15:57:37.353Z,11.45
2022-10-19T16:00:13.334Z,11.42
2022-10-19T16:02:40.925Z,11.40
2022-10-19T16:05:08.295Z,11.38
2022-10-19T16:07:38.570Z,11.38
2022-10-19T16:10:06.926Z,11.33
2022-10-19T16:12:33.862Z,11.32
2022-10-19T16:15:00.754Z,11.27
2022-10-19T16:17:27.821Z,11.26
2022-10-19T16:19:54.711Z,11.21
2022-10-19T16:22:21.715Z,11.20
2022-10-19T16:24:48.673Z,11.15
2022-10-19T16:27:16.391Z,11.10
2022-10-19T16:29:44.708Z,11.04
2022-10-19T16:32:11.644Z,10.99
2022-10-19T16:34:38.671Z,10.91
2022-10-19T16:37:07.201Z,10.84
2022-10-19T16:39:34.688Z,10.80
2022-10-19T16:42:01.605Z,10.77
2022-10-19T16:44:28.678Z,10.77
2022-10-19T16:46:59.323Z,10.72
2022-10-19T16:49:26.745Z,10.69
2022-10-19T16:51:56.498Z,10.63
2022-10-19T16:54:26.798Z,10.60
2022-10-19T16:56:55.719Z,10.53
2022-10-19T16:59:22.938Z,10.53
2022-10-19T17:01:50.079Z,10.48
2022-10-19T17:04:20.253Z,10.44
2022-10-19T17:06:47.443Z,10.41
2022-10-19T17:09:41.393Z,10.40
2022-10-19T17:12:02.257Z,10.31
2022-10-19T17:14:29.182Z,10.30
2022-10-19T17:16:56.100Z,10.30
2022-10-19T17:19:23.345Z,10.23
2022-10-19T17:21:50.433Z,10.19
2022-10-19T17:24:21.964Z,10.19
2022-10-19T17:26:51.271Z,10.13
2022-10-19T17:29:19.683Z,10.10
2022-10-19T17:31:48.084Z,10.08
2022-10-19T17:34:15.122Z,10.05
2022-10-19T17:36:46.047Z,9.99
2022-10-19T17:39:25.662Z,9.94
2022-10-19T17:42:01.456Z,9.95
2022-10-19T17:44:30.704Z,9.92
2022-10-19T17:46:58.051Z,9.90
2022-10-19T17:49:25.227Z,9.85
2022-10-19T17:51:53.668Z,9.84
2022-10-19T17:54:20.835Z,9.80
2022-10-19T17:56:47.859Z,9.76
2022-10-19T17:59:15.161Z,9.74
2022-10-19T18:01:42.222Z,9.70
2022-10-19T18:04:09.123Z,9.68
2022-10-19T18:06:37.223Z,9.63
2022-10-19T18:09:08.659Z,9.62
2022-10-19T18:11:40.234Z,9.58
2022-10-19T18:14:09.072Z,9.54
2022-10-19T18:16:39.438Z,9.52
2022-10-19T18:19:08.053Z,9.50
2022-10-19T18:21:39.868Z,9.45
2022-10-19T18:24:14.280Z,9.40
2022-10-19T18:26:42.755Z,9.39
2022-10-19T18:29:19.248Z,9.32
2022-10-19T18:31:51.470Z,9.26
2022-10-19T18:34:21.113Z,9.29
2022-10-19T18:36:48.432Z,9.22
2022-10-19T18:39:15.446Z,9.23
2022-10-19T18:41:42.484Z,9.19
2022-10-19T18:44:13.145Z,9.16
2022-10-19T18:46:40.704Z,9.11
2022-10-19T18:49:08.442Z,9.08
2022-10-19T18:51:35.662Z,9.07
2022-10-19T18:54:02.862Z,9.05
2022-10-19T18:56:29.947Z,9.11
2022-10-19T18:58:57.402Z,9.08
2022-10-19T19:01:29.219Z,9.09
2022-10-19T19:04:04.466Z,9.05
2022-10-19T19:06:32.776Z,9.04
2022-10-19T19:09:01.200Z,9.03
2022-10-19T19:11:32.993Z,9.03
2022-10-19T19:14:17.577Z,9.00
2022-10-19T19:16:45.685Z,8.99
2022-10-19T19:19:14.362Z,9.01
2022-10-19T19:21:44.149Z,8.94
2022-10-19T19:24:18.093Z,8.96
2022-10-19T19:26:49.409Z,8.93
2022-10-19T19:29:17.771Z,8.94
2022-10-19T19:31:44.838Z,8.90
2022-10-19T19:34:12.170Z,8.94
2022-10-19T19:36:46.451Z,8.92
2022-10-19T19:39:19.384Z,8.89
2022-10-19T19:41:47.061Z,8.89
2022-10-19T19:44:14.035Z,8.88
2022-10-19T19:46:40.924Z,8.88
2022-10-19T19:49:08.266Z,8.88
2022-10-19T19:51:35.757Z,8.85
2022-10-19T19:54:03.159Z,8.87
2022-10-19T19:56:30.325Z,8.87
2022-10-19T19:58:59.224Z,8.85
2022-10-19T20:01:26.679Z,8.84
2022-10-19T20:03:54.148Z,8.88
2022-10-19T20:06:25.034Z,8.84
2022-10-19T20:08:54.869Z,8.87
2022-10-19T20:11:22.888Z,8.85
2022-10-19T20:13:50.482Z,8.84
2022-10-19T20:16:22.704Z,8.84
2022-10-19T20:18:55.647Z,8.82
2022-10-19T20:21:25.282Z,8.81
2022-10-19T20:23:52.366Z,8.74
2022-10-19T20:26:24.278Z,8.76
2022-10-19T20:28:52.162Z,8.73
2022-10-19T20:33:57.864Z,8.59
2022-10-19T20:36:39.058Z,8.67
2022-10-19T20:39:06.167Z,8.64
2022-10-19T20:41:37.713Z,8.63
2022-10-19T20:44:06.597Z,8.62
2022-10-19T20:46:33.782Z,8.63
2022-10-19T20:49:08.609Z,8.57
2022-10-19T20:51:40.493Z,8.60
2022-10-19T20:54:16.249Z,8.59
2022-10-19T20:56:46.543Z,8.57
2022-10-19T20:59:19.679Z,8.53
2022-10-19T21:01:51.408Z,8.54
2022-10-19T21:04:20.645Z,8.56
2022-10-19T21:07:02.429Z,8.58
2022-10-19T21:09:31.798Z,8.50
2022-10-19T21:12:05.399Z,8.51
2022-10-19T21:14:33.208Z,8.52
2022-10-19T21:17:00.524Z,8.55
2022-10-19T21:19:33.187Z,8.60
2022-10-19T21:22:08.984Z,8.53
2022-10-19T21:24:39.542Z,8.60
2022-10-19T21:27:09.824Z,8.62
2022-10-19T21:29:39.976Z,8.56
2022-10-19T21:32:10.151Z,8.61
2022-10-19T21:34:41.058Z,8.61
2022-10-19T21:37:08.737Z,8.64
2022-10-19T21:39:36.591Z,8.63
2022-10-19T21:42:06.280Z,8.64
2022-10-19T21:44:33.235Z,8.63
2022-10-19T21:47:08.882Z,8.52
2022-10-19T21:49:45.887Z,8.59
2022-10-19T21:52:16.200Z,8.61
2022-10-19T21:54:53.629Z,8.59
2022-10-19T21:57:20.478Z,8.56
2022-10-19T21:59:50.966Z,8.57
2022-10-19T22:02:23.682Z,8.58
2022-10-19T22:04:50.783Z,8.58
2022-10-19T22:07:17.689Z,8.57
2022-10-19T22:09:44.595Z,8.56
2022-10-19T22:12:11.474Z,8.53
2022-10-19T22:15:03.592Z,8.56
2022-10-19T22:17:33.081Z,8.57
2022-10-19T22:20:00.917Z,8.53
2022-10-19T22:22:32.035Z,8.55
2022-10-19T22:25:03.663Z,8.50
2022-10-19T22:27:32.074Z,8.51
2022-10-19T22:29:59.822Z,8.51
2022-10-19T22:32:26.727Z,8.45
2022-10-19T22:34:58.999Z,8.49
2022-10-19T22:37:29.118Z,8.51
2022-10-19T22:40:12.623Z,8.48
2022-10-19T22:42:39.639Z,8.43
2022-10-19T22:45:22.852Z,8.46
2022-10-19T22:47:49.768Z,8.46
2022-10-19T22:50:28.474Z,8.45
2022-10-19T22:53:02.462Z,8.39
2022-10-19T22:55:31.951Z,8.35
2022-10-19T22:58:02.097Z,8.38
2022-10-19T23:00:34.203Z,8.33
2022-10-19T23:03:01.113Z,8.37
2022-10-19T23:05:33.227Z,8.35
2022-10-19T23:08:05.412Z,8.34
2022-10-19T23:10:35.089Z,8.34
2022-10-19T23:13:09.828Z,8.33
2022-10-19T23:15:46.338Z,8.33
2022-10-19T23:18:18.037Z,8.30
2022-10-19T23:21:14.328Z,8.28
2022-10-19T23:23:48.425Z,8.30
2022-10-19T23:26:23.114Z,8.27
2022-10-19T23:28:54.703Z,8.24
2022-10-19T23:31:36.639Z,8.30
2022-10-19T23:34:03.568Z,8.22
2022-10-19T23:36:30.822Z,8.28
2022-10-19T23:39:00.516Z,8.29
2022-10-19T23:41:51.155Z,8.32
2022-10-19T23:44:18.028Z,8.21
2022-10-19T23:46:48.221Z,8.20
2022-10-19T23:49:16.531Z,8.27
2022-10-19T23:51:44.718Z,8.27
2022-10-19T23:54:13.652Z,8.28
2022-10-19T23:56:42.712Z,8.25
2022-10-19T23:59:16.593Z,8.27
